Langdon, North Dakota
Current Conditions -  °F | °C
As of 1:35 PM on Thursday 23 Oct 2014 (Local Time) from KD55 Reporting Station
Clear Clear  
Wind Chill: 64°   Ceiling: Unl
Heat Index: 64°   Visibility: 10mi
Dew Point: 39°   Wind: 14mph
Humidity: 40%   Direction: 240°WSW
Pressure: 29.8"   Gusts: NA
Location:  48.76°N, 98.37°W
Report Text: KD55 231835Z AUTO 24012KT 10SM CLR 18/04 A2980 RMK AO2
Loading
Personal Weather Stations






























Interactive Weather Map
Tropical Storm Tracking
New forecast layout! Learn more

10-Day Weather Forecast

Advertisements
Track Severe Weather on mobile